Time;durP1;ratioP1;P1;durP2;ratioP2;P2;SDS_P1;SDS_P2;PMS_P1;PMS_P2;Temp;Humidity;BMP_temperature;BMP_pressure;BME280_temperature;BME280_humidity;BME280_pressure;Samples;Min_cycle;Max_cycle;Signal;HPM_P1;HPM_P2
2023/07/23 14:55:45;;;;;;;5.30;2.90;;;;;;;;;;6113521;22;1387079;-81
2023/07/23 14:58:13;;;;;;;9.05;4.05;;;;;;;;;;6147735;23;20103;-86
2023/07/23 15:00:44;;;;;;;7.55;3.20;;;20.50;68.40;;;;;;6148275;23;20017;-84
2023/07/23 15:03:13;;;;;;;6.75;3.20;;;;;;;;;;6127480;23;20028;-84
2023/07/23 15:05:40;;;;;;;6.60;3.45;;;20.90;60.60;;;;;;6170169;23;20021;-84
2023/07/23 15:08:07;;;;;;;7.47;3.47;;;;;;;;;;6148541;23;20092;-85
2023/07/23 15:10:33;;;;;;;11.30;2.97;;;;;;;;;;6148844;23;20021;-85
2023/07/23 15:13:00;;;;;;;7.47;3.28;;;20.80;60.20;;;;;;6148807;23;20017;-85
2023/07/23 15:15:26;;;;;;;7.05;2.72;;;20.90;61.00;;;;;;6148987;23;20025;-85
2023/07/23 15:17:52;;;;;;;4.53;2.65;;;20.70;60.30;;;;;;6124060;23;20023;-84
2023/07/23 15:20:19;;;;;;;4.63;3.03;;;20.60;57.60;;;;;;6150880;23;20048;-88
2023/07/23 15:22:45;;;;;;;10.35;3.88;;;20.80;60.90;;;;;;6149979;23;20021;-92
2023/07/23 15:25:11;;;;;;;4.40;3.25;;;20.70;57.70;;;;;;6150052;23;20025;-90
2023/07/23 15:27:38;;;;;;;6.68;2.90;;;20.80;55.00;;;;;;6124007;23;20445;-84
2023/07/23 15:30:05;;;;;;;6.35;2.53;;;20.90;57.70;;;;;;6174506;23;20354;-83
2023/07/23 15:32:31;;;;;;;4.05;3.15;;;;;;;;;;6125918;23;20024;-86
2023/07/23 15:34:57;;;;;;;8.88;3.42;;;;;;;;;;6150928;23;20020;-84
2023/07/23 15:37:23;;;;;;;6.70;2.83;;;;;;;;;;6148695;23;20048;-86
2023/07/23 15:39:50;;;;;;;9.77;3.20;;;21.00;60.50;;;;;;6150214;23;20017;-87
2023/07/23 15:42:16;;;;;;;5.68;3.13;;;20.80;60.00;;;;;;6174914;23;20090;-86
2023/07/23 15:44:42;;;;;;;5.40;3.40;;;;;;;;;;6174169;23;20021;-82
2023/07/23 15:47:08;;;;;;;5.75;3.40;;;;;;;;;;6150587;23;20013;-82
2023/07/23 15:49:34;;;;;;;6.90;2.83;;;21.10;60.60;;;;;;6149458;23;20464;-85
2023/07/23 15:52:00;;;;;;;6.57;3.20;;;21.10;60.80;;;;;;6125416;23;20501;-88
2023/07/23 15:54:26;;;;;;;7.82;3.50;;;;;;;;;;6149884;23;20071;-87
2023/07/23 15:56:51;;;;;;;7.35;3.88;;;21.10;60.00;;;;;;6150883;23;20021;-90
2023/07/23 15:59:18;;;;;;;10.02;3.75;;;;;;;;;;6174847;23;20099;-84
2023/07/23 16:01:44;;;;;;;5.80;3.58;;;;;;;;;;6150496;23;20017;-88
2023/07/23 16:04:10;;;;;;;7.22;3.13;;;;;;;;;;6174796;23;20096;-89
2023/07/23 16:06:42;;;;;;;16.48;3.95;;;21.20;58.20;;;;;;6125496;23;20017;-87
2023/07/23 16:09:08;;;;;;;6.70;2.95;;;21.10;56.40;;;;;;6150171;23;20027;-85
2023/07/23 16:11:35;;;;;;;5.10;3.10;;;;;;;;;;6174923;23;20358;-89
2023/07/23 16:14:00;;;;;;;6.22;3.05;;;21.30;56.50;;;;;;6150597;23;20108;-86
2023/07/23 16:16:27;;;;;;;5.93;2.40;;;;;;;;;;6150037;23;20057;-86
2023/07/23 16:18:53;;;;;;;6.82;3.47;;;;;;;;;;6125399;23;20060;-86
2023/07/23 16:21:19;;;;;;;4.47;3.10;;;;;;;;;;6174572;23;20086;-84
2023/07/23 16:23:45;;;;;;;5.10;2.83;;;;;;;;;;6174550;23;20020;-85
2023/07/23 16:26:11;;;;;;;7.40;3.60;;;21.30;55.20;;;;;;6149791;23;20017;-89
2023/07/23 16:28:37;;;;;;;10.77;4.03;;;;;;;;;;6150061;23;20024;-86
2023/07/23 16:31:02;;;;;;;5.97;2.60;;;21.30;54.50;;;;;;6174648;23;20017;-88
2023/07/23 16:33:29;;;;;;;5.50;3.90;;;;;;;;;;6125439;23;20092;-86
2023/07/23 16:36:03;;;;;;;4.68;3.03;;;21.20;51.40;;;;;;6149745;23;20025;-85
2023/07/23 16:38:30;;;;;;;6.10;3.38;;;21.10;51.30;;;;;;6149963;23;20013;-85
2023/07/23 16:40:58;;;;;;;4.85;2.88;;;21.20;52.00;;;;;;6149459;23;20473;-84
2023/07/23 16:43:27;;;;;;;7.40;3.00;;;21.00;52.00;;;;;;6149793;23;20017;-86
2023/07/23 16:45:53;;;;;;;6.63;2.75;;;;;;;;;;6149819;23;20017;-85
2023/07/23 16:48:19;;;;;;;5.93;3.05;;;;;;;;;;6125113;23;20469;-85
2023/07/23 16:50:46;;;;;;;5.55;2.70;;;;;;;;;;6149675;23;20021;-85
2023/07/23 16:53:14;;;;;;;5.95;3.25;;;21.30;52.70;;;;;;6149648;23;20048;-86
2023/07/23 16:55:41;;;;;;;7.55;2.78;;;;;;;;;;6174652;23;20054;-86
2023/07/23 16:58:06;;;;;;;4.57;3.10;;;21.10;54.10;;;;;;6150084;23;20029;-86
2023/07/23 17:00:33;;;;;;;4.60;2.50;;;;;;;;;;6174494;23;20021;-89
2023/07/23 17:02:59;;;;;;;4.68;2.88;;;;;;;;;;6149504;23;20144;-86
2023/07/23 17:05:25;;;;;;;7.78;3.40;;;;;;;;;;6149557;23;20076;-86
2023/07/23 17:07:51;;;;;;;7.78;2.45;;;;;;;;;;6148279;23;20031;-86
2023/07/23 17:10:18;;;;;;;5.20;2.97;;;;;;;;;;6173749;23;20057;-86
2023/07/23 17:12:44;;;;;;;4.45;2.78;;;;;;;;;;6149582;23;20353;-86
2023/07/23 17:15:14;;;;;;;4.88;2.70;;;21.10;50.90;;;;;;6148812;23;20461;-84
2023/07/23 17:17:40;;;;;;;7.50;3.17;;;;;;;;;;6149525;23;20021;-85
2023/07/23 17:20:06;;;;;;;6.68;3.03;;;21.00;50.50;;;;;;6149091;23;20362;-85
2023/07/23 17:22:32;;;;;;;4.13;2.67;;;;;;;;;;6149481;23;20024;-86
2023/07/23 17:24:58;;;;;;;6.22;2.85;;;;;;;;;;6150141;23;20705;-86
2023/07/23 17:27:24;;;;;;;7.22;3.00;;;;;;;;;;6125261;23;20114;-86
2023/07/23 17:29:51;;;;;;;6.85;3.50;;;;;;;;;;6173011;23;20104;-85
2023/07/23 17:32:18;;;;;;;12.15;3.22;;;21.00;50.20;;;;;;6149169;23;20083;-85
2023/07/23 17:34:44;;;;;;;5.97;2.58;;;;;;;;;;6124751;23;20024;-86
2023/07/23 17:37:10;;;;;;;5.35;2.55;;;;;;;;;;6148583;23;20021;-85
2023/07/23 17:39:36;;;;;;;5.32;2.50;;;;;;;;;;6149493;23;20539;-86
2023/07/23 17:42:02;;;;;;;5.20;2.65;;;21.30;50.20;;;;;;6150161;23;20023;-85
2023/07/23 17:44:28;;;;;;;5.78;2.50;;;;;;;;;;6150062;23;20057;-85
2023/07/23 17:46:55;;;;;;;4.53;2.45;;;;;;;;;;6150129;23;20473;-86
2023/07/23 17:49:21;;;;;;;7.45;2.40;;;;;;;;;;6125365;23;20017;-86
2023/07/23 17:51:47;;;;;;;4.80;2.38;;;21.70;49.20;;;;;;6125388;23;20017;-87
2023/07/23 17:54:13;;;;;;;6.93;3.00;;;;;;;;;;6174093;23;20417;-87
2023/07/23 17:56:39;;;;;;;6.50;2.20;;;21.90;48.30;;;;;;6149868;23;20409;-87
2023/07/23 17:59:05;;;;;;;3.70;2.15;;;21.70;48.60;;;;;;6125444;23;20052;-86
2023/07/23 18:01:31;;;;;;;5.57;1.95;;;;;;;;;;6126664;23;20087;-87
2023/07/23 18:03:59;;;;;;;5.18;2.28;;;;;;;;;;6176548;23;20059;-86
2023/07/23 18:06:26;;;;;;;6.25;2.42;;;21.90;46.20;;;;;;6151634;23;20024;-87
2023/07/23 18:08:51;;;;;;;7.03;2.55;;;21.90;46.50;;;;;;6125300;23;20024;-86
2023/07/23 18:11:20;;;;;;;5.57;2.80;;;22.10;46.60;;;;;;6125492;23;20017;-85
2023/07/23 18:13:46;;;;;;;4.28;2.47;;;;;;;;;;6125639;23;20282;-86
2023/07/23 18:16:14;;;;;;;3.58;2.17;;;21.80;47.30;;;;;;6149864;23;20021;-87
2023/07/23 18:18:41;;;;;;;4.68;2.47;;;;;;;;;;6125778;23;20013;-86
2023/07/23 18:21:07;;;;;;;3.83;2.60;;;;;;;;;;6149715;23;20056;-86
2023/07/23 18:23:34;;;;;;;6.88;2.92;;;;;;;;;;6125465;23;20028;-87
2023/07/23 18:26:00;;;;;;;5.05;3.05;;;;;;;;;;6125943;23;20462;-87
2023/07/23 18:28:27;;;;;;;3.72;2.63;;;21.50;43.00;;;;;;6174735;23;20017;-86
2023/07/23 18:30:59;;;;;;;4.20;2.35;;;21.20;46.80;;;;;;6149703;23;20595;-86
2023/07/23 18:33:26;;;;;;;3.67;2.42;;;;;;;;;;6149851;23;20009;-87
2023/07/23 18:35:52;;;;;;;4.53;2.08;;;;;;;;;;6173975;23;20021;-87
2023/07/23 18:38:18;;;;;;;4.40;2.65;;;;;;;;;;6150334;23;20013;-87
2023/07/23 18:40:44;;;;;;;3.85;1.83;;;;;;;;;;6149962;23;20445;-86
2023/07/23 18:43:10;;;;;;;10.13;2.30;;;;;;;;;;6125648;23;20025;-86
2023/07/23 18:45:36;;;;;;;3.05;2.40;;;;;;;;;;6125468;23;20032;-86
2023/07/23 18:48:02;;;;;;;6.03;2.55;;;;;;;;;;6174418;23;20017;-86
2023/07/23 18:50:29;;;;;;;3.88;2.38;;;;;;;;;;6125350;23;20024;-86
2023/07/23 18:52:55;;;;;;;3.38;2.10;;;;;;;;;;6149677;23;20457;-87
2023/07/23 18:55:21;;;;;;;4.53;1.95;;;;;;;;;;6125358;23;20021;-85
2023/07/23 18:57:47;;;;;;;4.88;2.78;;;;;;;;;;6149811;23;20025;-87
2023/07/23 19:00:13;;;;;;;6.22;2.90;;;20.80;49.30;;;;;;6149848;23;20067;-86
2023/07/23 19:02:39;;;;;;;3.03;2.00;;;;;;;;;;6125538;23;20095;-85
2023/07/23 19:05:05;;;;;;;6.28;2.42;;;;;;;;;;6130499;23;20511;-85
2023/07/23 19:07:31;;;;;;;4.10;2.03;;;;;;;;;;6156010;23;20434;-85
2023/07/23 19:09:58;;;;;;;3.85;2.35;;;;;;;;;;6179765;23;20017;-87
2023/07/23 19:12:24;;;;;;;2.90;2.00;;;;;;;;;;6155161;23;20021;-87
2023/07/23 19:14:50;;;;;;;4.55;2.22;;;;;;;;;;6154949;23;20337;-86
2023/07/23 19:17:16;;;;;;;3.58;2.35;;;;;;;;;;6131310;23;20017;-86
2023/07/23 19:19:42;;;;;;;4.13;1.98;;;;;;;;;;6148899;23;20056;-86
2023/07/23 19:22:10;;;;;;;4.15;1.95;;;;;;;;;;6148172;23;20022;-86
2023/07/23 19:24:36;;;;;;;8.70;3.58;;;;;;;;;;6075018;23;20053;-86
2023/07/23 19:27:02;;;;;;;7.55;2.78;;;;;;;;;;6146533;23;20049;-85
2023/07/23 19:29:28;;;;;;;4.97;2.38;;;;;;;;;;6098213;23;20402;-86
2023/07/23 19:31:55;;;;;;;6.85;2.20;;;20.00;50.20;;;;;;6151445;23;20013;-83
2023/07/23 19:34:21;;;;;;;5.45;2.58;;;;;;;;;;6069691;23;20021;-86
2023/07/23 19:36:50;;;;;;;7.45;2.28;;;;;;;;;;6146123;23;20054;-85
2023/07/23 19:39:16;;;;;;;5.80;2.65;;;;;;;;;;6146881;23;20462;-85
2023/07/23 19:41:42;;;;;;;3.28;2.20;;;;;;;;;;6097875;23;20017;-86
2023/07/23 19:44:09;;;;;;;5.30;2.10;;;;;;;;;;6146095;23;20017;-85
2023/07/23 19:46:35;;;;;;;5.22;1.95;;;19.40;56.10;;;;;;6073508;23;20028;-86
2023/07/23 19:49:06;;;;;;;4.70;3.15;;;19.50;56.50;;;;;;6073767;23;20025;-87
2023/07/23 19:51:32;;;;;;;5.38;2.88;;;;;;;;;;6150507;23;20524;-85
2023/07/23 19:54:00;;;;;;;3.47;2.53;;;;;;;;;;6136504;23;20024;-86
2023/07/23 19:56:27;;;;;;;4.93;2.00;;;;;;;;;;6162182;23;20021;-86
2023/07/23 19:58:56;;;;;;;2.38;2.00;;;;;;;;;;6188342;23;20138;-85
2023/07/23 20:01:22;;;;;;;3.55;2.22;;;;;;;;;;6137257;23;20013;-86
2023/07/23 20:03:48;;;;;;;5.22;2.03;;;;;;;;;;6186506;23;21160;-85
2023/07/23 20:06:14;;;;;;;4.47;2.03;;;;;;;;;;6137289;23;20088;-86
2023/07/23 20:08:41;;;;;;;4.72;2.17;;;;;;;;;;6186374;23;20609;-85
2023/07/23 20:11:09;;;;;;;4.45;2.10;;;;;;;;;;6160449;23;20025;-86
2023/07/23 20:13:35;;;;;;;7.82;2.22;;;;;;;;;;6161254;23;20056;-87
2023/07/23 20:16:01;;;;;;;4.55;2.63;;;;;;;;;;6158776;23;20028;-86
2023/07/23 20:18:27;;;;;;;3.60;1.92;;;;;;;;;;6183821;23;20063;-86
2023/07/23 20:20:53;;;;;;;4.45;2.63;;;19.10;63.60;;;;;;6184055;23;20021;-86
2023/07/23 20:23:19;;;;;;;4.88;2.00;;;19.10;63.70;;;;;;6184239;23;20021;-86
2023/07/23 20:25:53;;;;;;;22.63;3.58;;;19.40;59.30;;;;;;6184682;23;20013;-86
2023/07/23 20:28:19;;;;;;;5.43;2.40;;;18.70;64.10;;;;;;6159550;23;20012;-86
2023/07/23 20:30:49;;;;;;;4.28;2.22;;;19.10;59.50;;;;;;6184361;23;20099;-87
2023/07/23 20:33:15;;;;;;;3.38;1.67;;;;;;;;;;6183814;23;20017;-84
2023/07/23 20:35:41;;;;;;;4.35;2.25;;;19.30;65.00;;;;;;6183780;23;20017;-86
2023/07/23 20:38:07;;;;;;;3.05;1.92;;;;;;;;;;6159162;23;20549;-86
2023/07/23 20:40:33;;;;;;;5.75;2.17;;;;;;;;;;6183186;23;20009;-86
2023/07/23 20:43:00;;;;;;;2.83;2.53;;;;;;;;;;6159103;23;20017;-86
2023/07/23 20:45:26;;;;;;;4.95;2.28;;;;;;;;;;6158634;23;20021;-85
2023/07/23 20:47:54;;;;;;;5.65;2.85;;;;;;;;;;6183568;23;20024;-84
2023/07/23 20:50:20;;;;;;;6.72;2.53;;;;;;;;;;6159235;23;20393;-88
2023/07/23 20:52:46;;;;;;;5.88;2.75;;;;;;;;;;6183185;23;20445;-89
2023/07/23 20:55:12;;;;;;;5.35;2.45;;;;;;;;;;6157917;23;20040;-86
2023/07/23 20:57:39;;;;;;;3.55;2.88;;;;;;;;;;6133309;23;20454;-88
2023/07/23 21:00:05;;;;;;;3.90;2.72;;;;;;;;;;6157974;23;20025;-85
2023/07/23 21:02:31;;;;;;;5.43;2.88;;;;;;;;;;6157667;23;20016;-85
2023/07/23 21:04:57;;;;;;;4.30;3.30;;;;;;;;;;6133303;23;20353;-84
2023/07/23 21:07:23;;;;;;;3.92;2.30;;;;;;;;;;6157356;23;20013;-84
2023/07/23 21:09:50;;;;;;;6.53;3.22;;;;;;;;;;6157900;23;20096;-84
2023/07/23 21:12:16;;;;;;;5.93;3.40;;;;;;;;;;6157958;23;20805;-86
2023/07/23 21:14:42;;;;;;;5.72;2.97;;;;;;;;;;6134004;23;20335;-85
2023/07/23 21:17:08;;;;;;;8.65;2.83;;;;;;;;;;6157574;23;20017;-86
2023/07/23 21:19:34;;;;;;;6.53;3.67;;;;;;;;;;6182527;23;20017;-84
2023/07/23 21:22:00;;;;;;;5.43;3.20;;;;;;;;;;6158580;23;20027;-85
2023/07/23 21:24:26;;;;;;;8.35;3.80;;;;;;;;;;6158722;23;20025;-85
2023/07/23 21:26:52;;;;;;;7.50;3.92;;;;;;;;;;6133918;23;20319;-86
2023/07/23 21:29:19;;;;;;;8.27;3.28;;;;;;;;;;6133990;23;20086;-87
2023/07/23 21:31:45;;;;;;;5.53;2.90;;;;;;;;;;6183077;23;20096;-87
2023/07/23 21:34:11;;;;;;;9.93;3.83;;;;;;;;;;6158352;23;20469;-86
2023/07/23 21:36:37;;;;;;;5.05;3.58;;;;;;;;;;6158642;23;20353;-85
2023/07/23 21:39:02;;;;;;;5.82;4.10;;;18.10;69.30;;;;;;6158577;23;20024;-86
2023/07/23 21:41:28;;;;;;;6.00;3.25;;;18.40;69.50;;;;;;6133735;23;20017;-85
2023/07/23 21:43:54;;;;;;;5.55;4.10;;;;;;;;;;6133880;23;20025;-87
2023/07/23 21:46:20;;;;;;;8.40;4.35;;;;;;;;;;6134070;23;20013;-87
2023/07/23 21:48:46;;;;;;;7.55;4.57;;;;;;;;;;6133791;23;20418;-87
2023/07/23 21:51:13;;;;;;;6.18;3.50;;;18.20;66.30;;;;;;6158135;23;20013;-86
2023/07/23 21:53:39;;;;;;;7.90;4.28;;;;;;;;;;6133608;23;20017;-87
2023/07/23 21:56:05;;;;;;;7.80;3.67;;;;;;;;;;6158263;23;20021;-87
2023/07/23 21:58:31;;;;;;;7.43;4.50;;;;;;;;;;6158452;23;20482;-84
2023/07/23 22:00:57;;;;;;;9.30;3.65;;;;;;;;;;6157885;23;20393;-84
2023/07/23 22:03:23;;;;;;;8.77;4.28;;;;;;;;;;6158084;23;20017;-84
2023/07/23 22:05:50;;;;;;;8.65;4.57;;;;;;;;;;6158185;23;20048;-84
2023/07/23 22:08:16;;;;;;;7.97;4.60;;;;;;;;;;6182903;23;20024;-86
2023/07/23 22:10:43;;;;;;;5.65;3.70;;;;;;;;;;6133810;23;20083;-84
2023/07/23 22:13:08;;;;;;;12.10;4.88;;;18.10;73.00;;;;;;6158271;23;20017;-85
2023/07/23 22:15:34;;;;;;;6.55;3.97;;;;;;;;;;6133684;23;20028;-84
2023/07/23 22:18:01;;;;;;;13.60;4.90;;;;;;;;;;6158166;23;20029;-83
2023/07/23 22:20:27;;;;;;;12.20;4.38;;;;;;;;;;6157686;23;20025;-85
2023/07/23 22:22:53;;;;;;;7.78;4.68;;;;;;;;;;6157988;23;20021;-85
2023/07/23 22:25:19;;;;;;;9.55;4.75;;;;;;;;;;6158081;23;20020;-85
2023/07/23 22:27:45;;;;;;;9.93;4.90;;;;;;;;;;6157937;23;20103;-84
2023/07/23 22:30:12;;;;;;;11.32;4.70;;;;;;;;;;6182580;23;20048;-87
2023/07/23 22:32:38;;;;;;;6.10;4.43;;;;;;;;;;6133481;23;20028;-87
2023/07/23 22:35:05;;;;;;;8.45;5.13;;;;;;;;;;6133450;23;20068;-85
2023/07/23 22:37:31;;;;;;;8.18;5.20;;;;;;;;;;6157525;23;20017;-87
2023/07/23 22:39:57;;;;;;;11.18;5.22;;;;;;;;;;6158030;23;20465;-84
2023/07/23 22:42:22;;;;;;;9.85;5.22;;;18.00;75.30;;;;;;6133484;23;20024;-86
2023/07/23 22:44:49;;;;;;;12.73;6.32;;;;;;;;;;6158217;23;20020;-86
2023/07/23 22:47:15;;;;;;;8.07;5.22;;;;;;;;;;6157780;23;20013;-87
2023/07/23 22:49:41;;;;;;;8.00;5.13;;;;;;;;;;6157187;23;20454;-85
2023/07/23 22:52:07;;;;;;;12.27;5.60;;;;;;;;;;6133058;23;20481;-87
2023/07/23 22:54:33;;;;;;;12.38;6.32;;;;;;;;;;6157909;23;20017;-83
2023/07/23 22:56:59;;;;;;;9.88;4.88;;;;;;;;;;6157771;23;20402;-85
2023/07/23 22:59:25;;;;;;;8.95;5.70;;;;;;;;;;6133151;23;20017;-87
2023/07/23 23:01:51;;;;;;;20.38;5.68;;;;;;;;;;6182578;23;20092;-83
2023/07/23 23:04:18;;;;;;;10.50;6.13;;;;;;;;;;6157772;23;20468;-84
2023/07/23 23:06:44;;;;;;;13.82;5.18;;;;;;;;;;6133311;23;20013;-84
2023/07/23 23:09:10;;;;;;;15.77;5.68;;;;;;;;;;6182971;23;20023;-84
2023/07/23 23:11:36;;;;;;;12.15;5.47;;;;;;;;;;6157766;23;20017;-85
2023/07/23 23:14:03;;;;;;;10.30;4.80;;;;;;;;;;6157659;23;20021;-84
2023/07/23 23:16:29;;;;;;;15.02;5.78;;;;;;;;;;6157704;23;20100;-86
2023/07/23 23:18:55;;;;;;;10.05;5.22;;;;;;;;;;6182741;23;20501;-84
2023/07/23 23:21:21;;;;;;;9.80;5.05;;;;;;;;;;6132937;23;20446;-85
2023/07/23 23:23:47;;;;;;;9.40;4.93;;;;;;;;;;6182442;23;20022;-85
2023/07/23 23:26:13;;;;;;;6.43;4.80;;;;;;;;;;6182521;23;20014;-85
2023/07/23 23:28:39;;;;;;;12.10;5.45;;;;;;;;;;6157736;23;20017;-86
2023/07/23 23:31:05;;;;;;;9.48;5.97;;;;;;;;;;6157788;23;20017;-84
2023/07/23 23:33:31;;;;;;;6.50;5.22;;;;;;;;;;6182408;23;20350;-84
2023/07/23 23:35:58;;;;;;;13.40;6.30;;;;;;;;;;6133109;23;20017;-85
2023/07/23 23:38:24;;;;;;;8.23;5.30;;;17.40;81.30;;;;;;6157621;23;20040;-85
2023/07/23 23:40:50;;;;;;;10.18;5.65;;;;;;;;;;6133160;23;20025;-84
2023/07/23 23:43:20;;;;;;;10.25;5.78;;;;;;;;;;6157559;23;20028;-86
2023/07/23 23:45:46;;;;;;;9.43;5.47;;;17.60;78.90;;;;;;6158439;23;20013;-86
2023/07/23 23:48:12;;;;;;;7.63;5.65;;;;;;;;;;6157063;23;20024;-85
2023/07/23 23:50:38;;;;;;;11.23;5.45;;;;;;;;;;6158392;23;20046;-87
2023/07/23 23:53:04;;;;;;;7.38;5.03;;;;;;;;;;6135188;23;20052;-86
2023/07/23 23:55:31;;;;;;;8.15;4.97;;;;;;;;;;6184259;23;20212;-86
2023/07/23 23:57:57;;;;;;;9.00;5.50;;;;;;;;;;6159595;23;20027;-85
